createdAt,value
2018-12-10T00:27:28.313Z,99709.00
2018-12-10T00:59:43.798Z,99771.00
2018-12-10T01:08:31.597Z,99785.00
2018-12-10T01:11:08.293Z,99786.00
2018-12-10T01:14:06.668Z,99787.00
2018-12-10T01:16:52.144Z,99796.00
2018-12-10T01:20:10.036Z,99791.00
2018-12-10T01:22:39.871Z,99788.00
2018-12-10T01:39:18.798Z,99819.00
2018-12-10T01:56:03.897Z,99843.00
2018-12-10T02:05:30.867Z,99853.00
2018-12-10T02:22:03.884Z,99883.00
2018-12-10T02:33:07.444Z,99936.00
2018-12-10T02:35:36.994Z,99887.00
2018-12-10T02:38:06.134Z,99887.00
2018-12-10T02:40:35.199Z,99890.00
2018-12-10T02:43:05.213Z,99889.00
2018-12-10T02:45:36.889Z,99888.00
2018-12-10T02:48:07.227Z,99887.00
2018-12-10T02:51:06.255Z,99893.00
2018-12-10T02:53:35.451Z,99904.00
2018-12-10T02:56:38.883Z,99899.00
2018-12-10T02:59:10.189Z,99894.00
2018-12-10T03:04:26.520Z,99926.00
2018-12-10T03:06:58.507Z,99937.00
2018-12-10T03:09:35.172Z,99949.00
2018-12-10T03:12:12.699Z,99938.00
2018-12-10T03:14:42.042Z,99920.00
2018-12-10T03:17:12.243Z,99910.00
2018-12-10T03:19:42.417Z,99923.00
2018-12-10T03:22:16.466Z,99928.00
2018-12-10T03:28:02.301Z,99932.00
2018-12-10T03:30:33.251Z,99931.00
2018-12-10T03:33:02.536Z,99939.00
2018-12-10T03:35:36.576Z,99940.00
2018-12-10T03:38:05.783Z,99947.00
2018-12-10T03:40:35.186Z,99944.00
2018-12-10T03:43:05.002Z,99945.00
2018-12-10T03:45:34.672Z,99951.00
2018-12-10T04:15:29.491Z,99977.00
2018-12-10T04:21:04.538Z,99962.00
2018-12-10T04:26:10.468Z,99970.00
2018-12-10T04:28:53.795Z,99966.00
2018-12-10T04:31:22.942Z,99977.00
2018-12-10T04:34:04.455Z,99986.00
2018-12-10T04:36:54.372Z,99988.00
2018-12-10T04:39:25.839Z,99993.00
2018-12-10T04:41:56.790Z,99984.00
2018-12-10T04:44:50.750Z,99990.00
2018-12-10T04:47:20.167Z,99989.00
2018-12-10T04:49:57.369Z,99993.00
2018-12-10T04:56:15.105Z,100003.00
2018-12-10T05:05:14.168Z,100015.00
2018-12-10T05:07:43.371Z,100013.00
2018-12-10T05:10:32.097Z,100024.00
2018-12-10T05:13:02.743Z,100026.00
2018-12-10T05:15:32.097Z,100025.00
2018-12-10T05:21:02.464Z,100074.00
2018-12-10T05:26:13.543Z,100080.00
2018-12-10T05:28:42.787Z,100074.00
2018-12-10T05:31:18.298Z,100074.00
2018-12-10T05:34:02.348Z,100067.00
2018-12-10T05:36:39.201Z,100063.00
2018-12-10T05:39:08.561Z,100064.00
2018-12-10T05:42:08.619Z,100060.00
2018-12-10T05:59:11.435Z,100069.00
2018-12-10T06:07:39.439Z,100073.00
2018-12-10T06:13:55.987Z,100061.00
2018-12-10T06:16:25.308Z,100081.00
2018-12-10T06:18:55.052Z,100078.00
2018-12-10T06:24:37.303Z,100098.00
2018-12-10T06:27:42.247Z,100104.00
2018-12-10T06:33:17.364Z,100098.00
2018-12-10T06:35:46.482Z,100099.00
2018-12-10T06:38:15.830Z,100090.00
2018-12-10T06:40:44.999Z,100086.00
2018-12-10T06:43:14.232Z,100091.00
2018-12-10T06:45:44.312Z,100088.00
2018-12-10T06:48:13.391Z,100099.00
2018-12-10T06:50:42.535Z,100098.00
2018-12-10T06:53:12.210Z,100101.00
2018-12-10T06:55:41.895Z,100103.00
2018-12-10T06:58:11.085Z,100100.00
2018-12-10T07:00:49.865Z,100113.00
2018-12-10T07:03:19.067Z,100112.00
2018-12-10T07:05:48.247Z,100117.00
2018-12-10T07:16:23.992Z,100142.00
2018-12-10T07:18:53.123Z,100140.00
2018-12-10T07:21:22.932Z,100143.00
2018-12-10T07:23:52.654Z,100143.00
2018-12-10T07:26:21.889Z,100149.00
2018-12-10T07:28:50.995Z,100147.00
2018-12-10T07:31:20.325Z,100151.00
2018-12-10T07:33:49.635Z,100152.00
2018-12-10T07:36:18.745Z,100152.00
2018-12-10T07:38:47.908Z,100157.00
2018-12-10T07:41:17.576Z,100158.00
2018-12-10T07:43:46.891Z,100167.00
2018-12-10T07:46:16.887Z,100172.00
2018-12-10T07:49:29.193Z,100181.00
2018-12-10T07:51:58.327Z,100193.00
2018-12-10T07:54:27.559Z,100199.00
2018-12-10T07:56:56.685Z,100190.00
2018-12-10T07:59:25.759Z,100180.00
2018-12-10T08:01:55.021Z,100175.00
2018-12-10T08:04:24.125Z,100179.00
2018-12-10T08:06:53.334Z,100188.00
2018-12-10T08:09:24.160Z,100195.00
2018-12-10T08:11:59.850Z,100183.00
2018-12-10T08:15:07.220Z,100188.00
2018-12-10T08:17:40.949Z,100205.00
2018-12-10T08:20:23.397Z,100194.00
2018-12-10T08:22:52.909Z,100204.00
2018-12-10T08:25:23.284Z,100214.00
2018-12-10T08:27:52.559Z,100204.00
2018-12-10T08:32:55.451Z,100229.00
2018-12-10T08:35:29.953Z,100224.00
2018-12-10T08:41:51.591Z,100219.00
2018-12-10T08:44:20.731Z,100227.00
2018-12-10T08:46:49.807Z,100223.00
2018-12-10T08:49:19.446Z,100229.00
2018-12-10T08:51:49.132Z,100225.00
2018-12-10T08:55:09.845Z,100224.00
2018-12-10T08:57:39.119Z,100220.00
2018-12-10T09:00:09.614Z,100218.00
2018-12-10T09:02:39.218Z,100221.00
2018-12-10T09:05:08.752Z,100217.00
2018-12-10T09:10:45.490Z,100224.00
2018-12-10T09:13:14.855Z,100232.00
2018-12-10T09:15:45.156Z,100236.00
2018-12-10T09:18:14.394Z,100239.00
2018-12-10T09:20:43.534Z,100231.00
2018-12-10T09:23:13.449Z,100235.00
2018-12-10T09:25:42.714Z,100242.00
2018-12-10T09:28:19.316Z,100256.00
2018-12-10T09:30:43.034Z,100260.00
2018-12-10T09:33:12.381Z,100238.00
2018-12-10T09:35:41.982Z,100279.00
2018-12-10T09:41:19.700Z,100257.00
2018-12-10T09:43:49.682Z,100249.00
2018-12-10T09:49:25.955Z,100251.00
2018-12-10T09:52:18.184Z,100252.00
2018-12-10T09:54:48.551Z,100257.00
2018-12-10T10:03:17.858Z,100262.00
2018-12-10T10:05:47.100Z,100261.00
2018-12-10T10:08:16.855Z,100259.00
2018-12-10T10:10:45.919Z,100276.00
2018-12-10T10:13:23.428Z,100277.00
2018-12-10T10:16:29.227Z,100265.00
2018-12-10T10:19:04.496Z,100274.00
2018-12-10T10:21:35.551Z,100268.00
2018-12-10T10:24:19.581Z,100261.00
2018-12-10T10:26:53.250Z,100282.00
2018-12-10T10:38:50.651Z,100297.00
2018-12-10T10:56:29.052Z,100280.00
2018-12-10T10:58:58.864Z,100286.00
2018-12-10T11:01:33.757Z,100272.00
2018-12-10T11:04:03.123Z,100269.00
2018-12-10T11:06:54.298Z,100269.00
2018-12-10T11:09:26.619Z,100281.00
2018-12-10T11:11:59.263Z,100275.00
2018-12-10T11:14:28.647Z,100262.00
2018-12-10T11:17:00.679Z,100254.00
2018-12-10T11:38:36.078Z,100275.00
2018-12-10T11:41:06.194Z,100285.00
2018-12-10T11:43:35.992Z,100272.00
2018-12-10T11:46:06.738Z,100265.00
2018-12-10T11:49:01.829Z,100256.00
2018-12-10T11:51:41.258Z,100245.00
2018-12-10T11:54:10.767Z,100228.00
2018-12-10T11:56:40.870Z,100229.00
2018-12-10T11:59:10.340Z,100227.00
2018-12-10T12:01:39.505Z,100236.00
2018-12-10T12:04:08.886Z,100223.00
2018-12-10T12:06:38.284Z,100232.00
2018-12-10T12:09:08.104Z,100233.00
2018-12-10T12:11:38.893Z,100229.00
2018-12-10T12:14:09.035Z,100235.00
2018-12-10T12:16:39.013Z,100225.00
2018-12-10T12:19:20.476Z,100242.00
2018-12-10T12:27:58.947Z,100223.00
2018-12-10T12:30:28.154Z,100238.00
2018-12-10T12:32:57.287Z,100224.00
2018-12-10T12:35:26.458Z,100226.00
2018-12-10T12:37:55.535Z,100230.00
2018-12-10T12:40:24.813Z,100244.00
2018-12-10T12:42:53.905Z,100233.00
2018-12-10T12:45:23.226Z,100242.00
2018-12-10T12:47:52.475Z,100243.00
2018-12-10T12:53:25.365Z,100260.00
2018-12-10T12:55:54.485Z,100237.00
2018-12-10T12:58:31.508Z,100232.00
2018-12-10T13:01:20.698Z,100233.00
2018-12-10T13:03:50.053Z,100246.00
2018-12-10T13:06:45.674Z,100246.00
2018-12-10T13:09:21.791Z,100232.00
2018-12-10T13:11:46.117Z,100230.00
2018-12-10T13:14:16.157Z,100235.00
2018-12-10T13:16:49.373Z,100226.00
2018-12-10T13:19:17.447Z,100234.00
2018-12-10T13:21:46.582Z,100226.00
2018-12-10T13:24:16.844Z,100223.00
2018-12-10T13:26:45.945Z,100205.00
2018-12-10T13:29:15.443Z,100208.00
2018-12-10T13:31:44.712Z,100220.00
2018-12-10T13:34:13.926Z,100224.00
2018-12-10T13:36:45.640Z,100214.00
2018-12-10T13:53:15.864Z,100236.00
2018-12-10T13:58:24.129Z,100234.00
2018-12-10T14:00:53.849Z,100218.00
2018-12-10T14:03:23.302Z,100228.00
2018-12-10T14:05:52.742Z,100226.00
2018-12-10T14:08:21.834Z,100230.00
2018-12-10T14:10:53.847Z,100227.00
2018-12-10T14:44:04.160Z,100270.00
2018-12-10T14:49:19.469Z,100283.00
2018-12-10T14:51:48.584Z,100278.00
2018-12-10T14:54:34.590Z,100269.00
2018-12-10T14:57:07.150Z,100279.00
2018-12-10T14:59:40.178Z,100257.00
2018-12-10T15:02:19.600Z,100265.00
2018-12-10T15:04:49.030Z,100254.00
2018-12-10T15:07:18.239Z,100255.00
2018-12-10T15:12:32.249Z,100269.00
2018-12-10T15:15:03.467Z,100287.00
2018-12-10T15:17:34.987Z,100261.00
2018-12-10T15:23:06.932Z,100260.00
2018-12-10T15:25:36.882Z,100261.00
2018-12-10T15:28:07.044Z,100258.00
2018-12-10T15:30:36.519Z,100258.00
2018-12-10T15:33:06.548Z,100249.00
2018-12-10T15:35:35.894Z,100243.00
2018-12-10T15:38:05.184Z,100243.00
2018-12-10T15:40:36.753Z,100239.00
2018-12-10T15:43:07.909Z,100234.00
2018-12-10T15:45:51.009Z,100229.00
2018-12-10T15:48:44.053Z,100227.00
2018-12-10T15:51:13.814Z,100241.00
2018-12-10T15:54:06.716Z,100236.00
2018-12-10T15:56:37.111Z,100233.00
2018-12-10T15:59:06.366Z,100237.00
2018-12-10T16:01:35.588Z,100235.00
2018-12-10T16:04:04.823Z,100238.00
2018-12-10T16:07:25.893Z,100242.00
2018-12-10T16:09:55.118Z,100243.00
2018-12-10T16:12:24.340Z,100246.00
2018-12-10T16:14:54.842Z,100239.00
2018-12-10T16:17:24.489Z,100248.00
2018-12-10T16:20:17.975Z,100244.00
2018-12-10T16:22:48.339Z,100246.00
2018-12-10T16:25:17.746Z,100243.00
2018-12-10T16:27:47.507Z,100247.00
2018-12-10T16:30:17.614Z,100259.00
2018-12-10T16:32:47.128Z,100254.00
2018-12-10T16:35:16.222Z,100249.00
2018-12-10T16:37:45.637Z,100254.00
2018-12-10T16:41:06.948Z,100249.00
2018-12-10T16:43:36.127Z,100258.00
2018-12-10T16:46:29.891Z,100258.00
2018-12-10T16:49:30.311Z,100259.00
2018-12-10T16:55:28.892Z,100256.00
2018-12-10T16:57:58.161Z,100262.00
2018-12-10T17:00:28.191Z,100261.00
2018-12-10T17:06:10.321Z,100256.00
2018-12-10T17:08:39.393Z,100252.00
2018-12-10T17:11:08.613Z,100246.00
2018-12-10T17:13:38.480Z,100252.00
2018-12-10T17:16:26.921Z,100241.00
2018-12-10T17:18:57.299Z,100245.00
2018-12-10T17:21:51.805Z,100243.00
2018-12-10T17:24:27.373Z,100236.00
2018-12-10T17:27:00.960Z,100225.00
2018-12-10T17:29:31.364Z,100237.00
2018-12-10T17:32:04.148Z,100226.00
2018-12-10T17:34:34.635Z,100236.00
2018-12-10T17:37:04.265Z,100237.00
2018-12-10T17:39:34.908Z,100236.00
2018-12-10T17:42:06.357Z,100238.00
2018-12-10T17:44:35.731Z,100241.00
2018-12-10T17:47:08.764Z,100235.00
2018-12-10T17:49:39.026Z,100242.00
2018-12-10T17:52:12.582Z,100245.00
2018-12-10T17:54:46.355Z,100240.00
2018-12-10T17:57:15.606Z,100247.00
2018-12-10T17:59:44.870Z,100253.00
2018-12-10T18:02:15.191Z,100251.00
2018-12-10T18:04:44.742Z,100249.00
2018-12-10T18:07:15.276Z,100247.00
2018-12-10T18:09:45.320Z,100251.00
2018-12-10T18:12:15.226Z,100253.00
2018-12-10T18:14:44.749Z,100245.00
2018-12-10T18:17:14.085Z,100257.00
2018-12-10T18:19:43.418Z,100247.00
2018-12-10T18:22:12.717Z,100259.00
2018-12-10T18:24:41.993Z,100263.00
2018-12-10T18:27:14.485Z,100272.00
2018-12-10T18:29:50.269Z,100263.00
2018-12-10T18:32:19.473Z,100270.00
2018-12-10T18:34:48.644Z,100267.00
2018-12-10T18:37:17.860Z,100271.00
2018-12-10T18:39:47.166Z,100285.00
2018-12-10T18:42:16.289Z,100276.00
2018-12-10T18:44:45.543Z,100266.00
2018-12-10T18:47:15.492Z,100287.00
2018-12-10T18:49:46.560Z,100271.00
2018-12-10T18:52:16.219Z,100288.00
2018-12-10T18:54:45.463Z,100278.00
2018-12-10T18:57:14.886Z,100285.00
2018-12-10T18:59:44.963Z,100288.00
2018-12-10T19:02:14.184Z,100290.00
2018-12-10T19:04:43.790Z,100291.00
2018-12-10T19:07:13.109Z,100299.00
2018-12-10T19:09:42.828Z,100293.00
2018-12-10T19:12:12.062Z,100297.00
2018-12-10T19:14:41.234Z,100305.00
2018-12-10T19:17:10.581Z,100313.00
2018-12-10T19:19:39.848Z,100302.00
2018-12-10T19:22:09.017Z,100312.00
2018-12-10T19:24:38.319Z,100305.00
2018-12-10T19:27:07.523Z,100310.00
2018-12-10T19:29:36.729Z,100332.00
2018-12-10T19:32:06.057Z,100322.00
2018-12-10T19:34:35.369Z,100323.00
2018-12-10T19:37:04.616Z,100340.00
2018-12-10T19:39:33.794Z,100337.00
2018-12-10T19:42:03.028Z,100325.00
2018-12-10T19:44:32.332Z,100352.00
2018-12-10T19:47:01.639Z,100348.00
2018-12-10T19:49:30.988Z,100338.00
2018-12-10T19:52:00.380Z,100324.00
2018-12-10T19:54:29.702Z,100337.00
2018-12-10T19:56:58.927Z,100342.00
2018-12-10T19:59:28.552Z,100338.00
2018-12-10T20:01:57.928Z,100348.00
2018-12-10T20:04:27.426Z,100208.00
2018-12-10T20:07:02.593Z,100341.00
2018-12-10T20:09:31.730Z,100349.00
2018-12-10T20:12:02.099Z,100340.00
2018-12-10T20:14:31.497Z,100351.00
2018-12-10T20:17:02.400Z,100356.00
2018-12-10T20:19:32.836Z,100355.00
2018-12-10T20:22:02.075Z,100359.00
2018-12-10T20:24:32.231Z,100365.00
2018-12-10T20:27:01.884Z,100365.00
2018-12-10T20:29:31.176Z,100357.00
2018-12-10T20:32:00.726Z,100363.00
2018-12-10T20:34:32.534Z,100364.00
2018-12-10T20:37:02.021Z,100370.00
2018-12-10T20:39:31.612Z,100379.00
2018-12-10T20:42:05.761Z,100378.00
2018-12-10T20:44:35.587Z,100375.00
2018-12-10T20:47:05.292Z,100364.00
2018-12-10T20:49:35.100Z,100372.00
2018-12-10T20:52:04.855Z,100381.00
2018-12-10T20:57:15.451Z,100386.00
2018-12-10T20:59:45.614Z,100391.00
2018-12-10T21:02:14.954Z,100389.00
2018-12-10T21:04:44.140Z,100392.00
2018-12-10T21:07:13.628Z,100400.00
2018-12-10T21:09:42.918Z,100399.00
2018-12-10T21:12:12.301Z,100385.00
2018-12-10T21:14:41.637Z,100386.00
2018-12-10T21:17:10.962Z,100394.00
2018-12-10T21:19:40.474Z,100407.00
2018-12-10T21:22:10.140Z,100408.00
2018-12-10T21:24:39.670Z,100405.00
2018-12-10T21:27:10.478Z,100418.00
2018-12-10T21:29:40.013Z,100420.00
2018-12-10T21:32:09.437Z,100425.00
2018-12-10T21:34:39.571Z,100410.00
2018-12-10T21:37:09.121Z,100414.00
2018-12-10T21:39:38.789Z,100412.00
2018-12-10T21:42:08.563Z,100416.00
2018-12-10T21:44:39.333Z,100420.00
2018-12-10T21:47:10.089Z,100419.00
2018-12-10T21:49:39.498Z,100413.00
2018-12-10T21:52:09.683Z,100413.00
2018-12-10T21:54:39.844Z,100409.00
2018-12-10T21:57:09.273Z,100412.00
2018-12-10T21:59:38.784Z,100404.00
2018-12-10T22:02:08.253Z,100414.00
2018-12-10T22:04:37.508Z,100409.00
2018-12-10T22:07:06.818Z,100414.00
2018-12-10T22:09:36.005Z,100398.00
2018-12-10T22:12:05.407Z,100409.00
2018-12-10T22:17:21.599Z,100399.00
2018-12-10T22:19:51.235Z,100395.00
2018-12-10T22:22:21.998Z,100407.00
2018-12-10T22:24:51.700Z,100407.00
2018-12-10T22:27:21.139Z,100409.00
2018-12-10T22:29:50.659Z,100408.00
2018-12-10T22:32:20.125Z,100416.00
2018-12-10T22:34:49.457Z,100401.00
2018-12-10T22:37:20.380Z,100417.00
2018-12-10T22:39:50.129Z,100421.00
2018-12-10T22:42:19.525Z,100422.00
2018-12-10T22:44:48.713Z,100416.00
2018-12-10T22:47:17.849Z,100415.00
2018-12-10T22:49:49.240Z,100428.00
2018-12-10T22:52:18.408Z,100428.00
2018-12-10T22:54:47.583Z,100426.00
2018-12-10T22:57:16.831Z,100435.00
2018-12-10T22:59:52.035Z,100431.00
2018-12-10T23:02:21.874Z,100424.00
2018-12-10T23:04:51.437Z,100427.00
2018-12-10T23:07:21.802Z,100432.00
2018-12-10T23:10:06.521Z,100431.00
2018-12-10T23:12:35.821Z,100431.00
2018-12-10T23:15:05.682Z,100437.00
2018-12-10T23:37:08.075Z,100458.00
2018-12-10T23:39:42.382Z,100454.00
2018-12-10T23:42:13.413Z,100454.00
2018-12-10T23:44:48.123Z,100452.00
2018-12-10T23:47:17.455Z,100470.00
2018-12-10T23:49:47.351Z,100481.00
2018-12-10T23:52:18.983Z,100476.00
2018-12-10T23:54:49.018Z,100476.00
2018-12-10T23:57:18.993Z,100469.00
2018-12-10T23:59:49.361Z,100463.00
